sensor_id;sensor_type;location;lat;lon;timestamp;P1;durP1;ratioP1;P2;durP2;ratioP2
52432;SDS011;38352;53.244;6.594;2024-03-17T00:00:46;12.10;;;6.03;;
52432;SDS011;38352;53.244;6.594;2024-03-17T00:03:12;18.10;;;7.35;;
52432;SDS011;38352;53.244;6.594;2024-03-17T00:05:38;14.85;;;6.20;;
52432;SDS011;38352;53.244;6.594;2024-03-17T00:08:04;13.98;;;6.35;;
52432;SDS011;38352;53.244;6.594;2024-03-17T00:10:31;16.15;;;6.65;;
52432;SDS011;38352;53.244;6.594;2024-03-17T00:12:57;19.67;;;6.65;;
52432;SDS011;38352;53.244;6.594;2024-03-17T00:15:23;13.38;;;6.28;;
52432;SDS011;38352;53.244;6.594;2024-03-17T00:17:49;23.50;;;6.20;;
52432;SDS011;38352;53.244;6.594;2024-03-17T00:20:15;13.20;;;5.93;;
52432;SDS011;38352;53.244;6.594;2024-03-17T00:22:48;13.48;;;6.22;;
52432;SDS011;38352;53.244;6.594;2024-03-17T00:25:14;12.05;;;5.95;;
52432;SDS011;38352;53.244;6.594;2024-03-17T00:27:41;16.60;;;5.97;;
52432;SDS011;38352;53.244;6.594;2024-03-17T00:30:10;17.50;;;6.63;;
52432;SDS011;38352;53.244;6.594;2024-03-17T00:32:40;12.70;;;5.55;;
52432;SDS011;38352;53.244;6.594;2024-03-17T00:35:07;13.70;;;5.80;;
52432;SDS011;38352;53.244;6.594;2024-03-17T00:37:33;11.77;;;5.20;;
52432;SDS011;38352;53.244;6.594;2024-03-17T00:40:00;14.68;;;5.85;;
52432;SDS011;38352;53.244;6.594;2024-03-17T00:42:27;13.60;;;5.05;;
52432;SDS011;38352;53.244;6.594;2024-03-17T00:44:53;10.23;;;5.38;;
52432;SDS011;38352;53.244;6.594;2024-03-17T00:47:19;13.25;;;5.90;;
52432;SDS011;38352;53.244;6.594;2024-03-17T00:49:45;9.88;;;4.68;;
52432;SDS011;38352;53.244;6.594;2024-03-17T00:52:12;10.88;;;5.30;;
52432;SDS011;38352;53.244;6.594;2024-03-17T00:54:39;9.20;;;4.65;;
52432;SDS011;38352;53.244;6.594;2024-03-17T00:57:05;10.32;;;4.68;;
52432;SDS011;38352;53.244;6.594;2024-03-17T00:59:31;12.77;;;5.22;;
52432;SDS011;38352;53.244;6.594;2024-03-17T01:01:58;13.07;;;4.88;;
52432;SDS011;38352;53.244;6.594;2024-03-17T01:04:24;9.45;;;4.55;;
52432;SDS011;38352;53.244;6.594;2024-03-17T01:06:50;11.60;;;5.28;;
52432;SDS011;38352;53.244;6.594;2024-03-17T01:09:16;10.02;;;4.43;;
52432;SDS011;38352;53.244;6.594;2024-03-17T01:11:42;11.52;;;5.75;;
52432;SDS011;38352;53.244;6.594;2024-03-17T01:14:08;11.25;;;4.75;;
52432;SDS011;38352;53.244;6.594;2024-03-17T01:16:35;11.55;;;5.38;;
52432;SDS011;38352;53.244;6.594;2024-03-17T01:19:01;12.18;;;5.57;;
52432;SDS011;38352;53.244;6.594;2024-03-17T01:21:27;11.77;;;4.70;;
52432;SDS011;38352;53.244;6.594;2024-03-17T01:23:53;9.80;;;4.47;;
52432;SDS011;38352;53.244;6.594;2024-03-17T01:26:19;14.95;;;5.18;;
52432;SDS011;38352;53.244;6.594;2024-03-17T01:28:45;10.65;;;4.70;;
52432;SDS011;38352;53.244;6.594;2024-03-17T01:31:11;14.02;;;5.38;;
52432;SDS011;38352;53.244;6.594;2024-03-17T01:33:37;10.82;;;5.50;;
52432;SDS011;38352;53.244;6.594;2024-03-17T01:36:04;12.85;;;4.63;;
52432;SDS011;38352;53.244;6.594;2024-03-17T01:38:30;8.45;;;4.55;;
52432;SDS011;38352;53.244;6.594;2024-03-17T01:40:57;11.55;;;4.80;;
52432;SDS011;38352;53.244;6.594;2024-03-17T01:43:24;9.73;;;4.78;;
52432;SDS011;38352;53.244;6.594;2024-03-17T01:45:50;10.00;;;4.50;;
52432;SDS011;38352;53.244;6.594;2024-03-17T01:48:16;11.27;;;4.45;;
52432;SDS011;38352;53.244;6.594;2024-03-17T01:50:44;8.70;;;4.53;;
52432;SDS011;38352;53.244;6.594;2024-03-17T01:53:12;8.85;;;4.20;;
52432;SDS011;38352;53.244;6.594;2024-03-17T01:55:39;8.70;;;4.25;;
52432;SDS011;38352;53.244;6.594;2024-03-17T01:58:06;8.27;;;4.43;;
52432;SDS011;38352;53.244;6.594;2024-03-17T02:00:34;7.70;;;4.45;;
52432;SDS011;38352;53.244;6.594;2024-03-17T02:03:04;11.02;;;4.05;;
52432;SDS011;38352;53.244;6.594;2024-03-17T02:05:31;7.95;;;4.68;;
52432;SDS011;38352;53.244;6.594;2024-03-17T02:07:58;10.40;;;3.95;;
52432;SDS011;38352;53.244;6.594;2024-03-17T02:10:24;7.30;;;4.35;;
52432;SDS011;38352;53.244;6.594;2024-03-17T02:12:51;9.38;;;4.15;;
52432;SDS011;38352;53.244;6.594;2024-03-17T02:15:17;6.13;;;4.03;;
52432;SDS011;38352;53.244;6.594;2024-03-17T02:17:43;6.60;;;3.63;;
52432;SDS011;38352;53.244;6.594;2024-03-17T02:20:09;5.93;;;3.67;;
52432;SDS011;38352;53.244;6.594;2024-03-17T02:22:36;7.68;;;3.03;;
52432;SDS011;38352;53.244;6.594;2024-03-17T02:25:02;9.18;;;3.95;;
52432;SDS011;38352;53.244;6.594;2024-03-17T02:27:29;8.00;;;3.50;;
52432;SDS011;38352;53.244;6.594;2024-03-17T02:29:55;8.68;;;3.63;;
52432;SDS011;38352;53.244;6.594;2024-03-17T02:32:21;6.35;;;3.47;;
52432;SDS011;38352;53.244;6.594;2024-03-17T02:34:48;8.23;;;3.50;;
52432;SDS011;38352;53.244;6.594;2024-03-17T02:37:14;7.30;;;3.53;;
52432;SDS011;38352;53.244;6.594;2024-03-17T02:39:40;7.68;;;3.40;;
52432;SDS011;38352;53.244;6.594;2024-03-17T02:42:07;5.63;;;2.85;;
52432;SDS011;38352;53.244;6.594;2024-03-17T02:44:34;6.35;;;2.90;;
52432;SDS011;38352;53.244;6.594;2024-03-17T02:47:01;12.63;;;4.30;;
52432;SDS011;38352;53.244;6.594;2024-03-17T02:49:29;9.52;;;4.32;;
52432;SDS011;38352;53.244;6.594;2024-03-17T02:52:07;8.45;;;4.15;;
52432;SDS011;38352;53.244;6.594;2024-03-17T02:54:34;12.43;;;4.25;;
52432;SDS011;38352;53.244;6.594;2024-03-17T02:57:01;13.23;;;5.15;;
52432;SDS011;38352;53.244;6.594;2024-03-17T02:59:27;10.10;;;4.90;;
52432;SDS011;38352;53.244;6.594;2024-03-17T03:01:53;6.75;;;4.13;;
52432;SDS011;38352;53.244;6.594;2024-03-17T03:04:19;10.00;;;4.53;;
52432;SDS011;38352;53.244;6.594;2024-03-17T03:06:45;8.70;;;4.60;;
52432;SDS011;38352;53.244;6.594;2024-03-17T03:09:12;12.73;;;5.20;;
52432;SDS011;38352;53.244;6.594;2024-03-17T03:11:42;10.55;;;4.90;;
52432;SDS011;38352;53.244;6.594;2024-03-17T03:14:08;9.50;;;4.20;;
52432;SDS011;38352;53.244;6.594;2024-03-17T03:16:34;14.25;;;5.40;;
52432;SDS011;38352;53.244;6.594;2024-03-17T03:19:00;10.70;;;5.10;;
52432;SDS011;38352;53.244;6.594;2024-03-17T03:21:26;11.80;;;4.50;;
52432;SDS011;38352;53.244;6.594;2024-03-17T03:23:52;12.82;;;5.13;;
52432;SDS011;38352;53.244;6.594;2024-03-17T03:26:18;9.98;;;4.63;;
52432;SDS011;38352;53.244;6.594;2024-03-17T03:28:44;11.55;;;4.50;;
52432;SDS011;38352;53.244;6.594;2024-03-17T03:31:11;11.00;;;4.90;;
52432;SDS011;38352;53.244;6.594;2024-03-17T03:33:40;10.60;;;4.97;;
52432;SDS011;38352;53.244;6.594;2024-03-17T03:36:07;11.73;;;4.95;;
52432;SDS011;38352;53.244;6.594;2024-03-17T03:38:33;14.13;;;5.28;;
52432;SDS011;38352;53.244;6.594;2024-03-17T03:41:05;12.00;;;5.40;;
52432;SDS011;38352;53.244;6.594;2024-03-17T03:43:31;11.68;;;5.80;;
52432;SDS011;38352;53.244;6.594;2024-03-17T03:45:59;11.93;;;5.13;;
52432;SDS011;38352;53.244;6.594;2024-03-17T03:48:25;10.35;;;4.40;;
52432;SDS011;38352;53.244;6.594;2024-03-17T03:50:51;7.90;;;4.40;;
52432;SDS011;38352;53.244;6.594;2024-03-17T03:53:17;12.18;;;4.78;;
52432;SDS011;38352;53.244;6.594;2024-03-17T03:55:43;8.50;;;4.97;;
52432;SDS011;38352;53.244;6.594;2024-03-17T03:58:09;6.93;;;4.10;;
52432;SDS011;38352;53.244;6.594;2024-03-17T04:00:37;10.05;;;4.82;;
52432;SDS011;38352;53.244;6.594;2024-03-17T04:03:04;13.77;;;4.72;;
52432;SDS011;38352;53.244;6.594;2024-03-17T04:05:31;12.13;;;4.68;;
52432;SDS011;38352;53.244;6.594;2024-03-17T04:07:57;8.55;;;4.30;;
52432;SDS011;38352;53.244;6.594;2024-03-17T04:10:23;10.38;;;4.68;;
52432;SDS011;38352;53.244;6.594;2024-03-17T04:12:50;8.45;;;4.40;;
52432;SDS011;38352;53.244;6.594;2024-03-17T04:15:16;8.63;;;4.20;;
52432;SDS011;38352;53.244;6.594;2024-03-17T04:17:43;9.85;;;3.72;;
52432;SDS011;38352;53.244;6.594;2024-03-17T04:20:09;7.78;;;3.13;;
52432;SDS011;38352;53.244;6.594;2024-03-17T04:22:38;8.85;;;4.05;;
52432;SDS011;38352;53.244;6.594;2024-03-17T04:25:04;10.27;;;3.78;;
52432;SDS011;38352;53.244;6.594;2024-03-17T04:27:31;7.93;;;3.20;;
52432;SDS011;38352;53.244;6.594;2024-03-17T04:29:57;10.02;;;3.92;;
52432;SDS011;38352;53.244;6.594;2024-03-17T04:32:24;7.18;;;3.38;;
52432;SDS011;38352;53.244;6.594;2024-03-17T04:34:52;6.97;;;3.72;;
52432;SDS011;38352;53.244;6.594;2024-03-17T04:37:18;9.00;;;3.92;;
52432;SDS011;38352;53.244;6.594;2024-03-17T04:39:47;8.23;;;3.88;;
52432;SDS011;38352;53.244;6.594;2024-03-17T04:42:13;9.50;;;3.50;;
52432;SDS011;38352;53.244;6.594;2024-03-17T04:44:43;7.85;;;3.50;;
52432;SDS011;38352;53.244;6.594;2024-03-17T04:47:09;7.18;;;3.03;;
52432;SDS011;38352;53.244;6.594;2024-03-17T04:49:40;8.98;;;3.75;;
52432;SDS011;38352;53.244;6.594;2024-03-17T04:52:07;12.60;;;3.55;;
52432;SDS011;38352;53.244;6.594;2024-03-17T04:54:34;8.73;;;3.30;;
52432;SDS011;38352;53.244;6.594;2024-03-17T04:57:00;6.93;;;3.10;;
52432;SDS011;38352;53.244;6.594;2024-03-17T04:59:27;8.80;;;3.47;;
52432;SDS011;38352;53.244;6.594;2024-03-17T05:01:53;10.88;;;3.80;;
52432;SDS011;38352;53.244;6.594;2024-03-17T05:04:19;9.25;;;3.28;;
52432;SDS011;38352;53.244;6.594;2024-03-17T05:06:45;8.80;;;3.08;;
52432;SDS011;38352;53.244;6.594;2024-03-17T05:09:14;8.48;;;3.47;;
52432;SDS011;38352;53.244;6.594;2024-03-17T05:11:41;8.50;;;3.20;;
52432;SDS011;38352;53.244;6.594;2024-03-17T05:14:07;7.50;;;3.40;;
52432;SDS011;38352;53.244;6.594;2024-03-17T05:16:33;10.93;;;3.22;;
52432;SDS011;38352;53.244;6.594;2024-03-17T05:18:59;6.95;;;3.33;;
52432;SDS011;38352;53.244;6.594;2024-03-17T05:21:25;11.40;;;3.60;;
52432;SDS011;38352;53.244;6.594;2024-03-17T05:23:55;9.70;;;3.38;;
52432;SDS011;38352;53.244;6.594;2024-03-17T05:26:21;5.80;;;3.33;;
52432;SDS011;38352;53.244;6.594;2024-03-17T05:28:47;9.52;;;3.65;;
52432;SDS011;38352;53.244;6.594;2024-03-17T05:31:14;8.27;;;3.67;;
52432;SDS011;38352;53.244;6.594;2024-03-17T05:33:42;9.43;;;3.50;;
52432;SDS011;38352;53.244;6.594;2024-03-17T05:36:09;12.25;;;3.67;;
52432;SDS011;38352;53.244;6.594;2024-03-17T05:38:36;7.78;;;3.22;;
52432;SDS011;38352;53.244;6.594;2024-03-17T05:41:03;11.82;;;4.32;;
52432;SDS011;38352;53.244;6.594;2024-03-17T05:43:30;11.75;;;3.40;;
52432;SDS011;38352;53.244;6.594;2024-03-17T05:45:58;11.75;;;3.70;;
52432;SDS011;38352;53.244;6.594;2024-03-17T05:48:24;8.80;;;3.60;;
52432;SDS011;38352;53.244;6.594;2024-03-17T05:50:50;10.65;;;4.25;;
52432;SDS011;38352;53.244;6.594;2024-03-17T05:53:17;9.60;;;3.72;;
52432;SDS011;38352;53.244;6.594;2024-03-17T05:55:43;12.57;;;4.20;;
52432;SDS011;38352;53.244;6.594;2024-03-17T05:58:10;12.00;;;4.50;;
52432;SDS011;38352;53.244;6.594;2024-03-17T06:00:37;8.70;;;4.25;;
52432;SDS011;38352;53.244;6.594;2024-03-17T06:03:03;9.45;;;4.70;;
52432;SDS011;38352;53.244;6.594;2024-03-17T06:05:33;12.10;;;4.20;;
52432;SDS011;38352;53.244;6.594;2024-03-17T06:08:02;11.88;;;5.15;;
52432;SDS011;38352;53.244;6.594;2024-03-17T06:10:30;13.60;;;4.97;;
52432;SDS011;38352;53.244;6.594;2024-03-17T06:12:57;9.70;;;3.65;;
52432;SDS011;38352;53.244;6.594;2024-03-17T06:15:23;8.73;;;4.10;;
52432;SDS011;38352;53.244;6.594;2024-03-17T06:17:50;13.02;;;4.50;;
52432;SDS011;38352;53.244;6.594;2024-03-17T06:20:20;9.20;;;4.43;;
52432;SDS011;38352;53.244;6.594;2024-03-17T06:22:46;14.98;;;5.10;;
52432;SDS011;38352;53.244;6.594;2024-03-17T06:25:12;15.63;;;5.20;;
52432;SDS011;38352;53.244;6.594;2024-03-17T06:27:38;15.70;;;5.07;;
52432;SDS011;38352;53.244;6.594;2024-03-17T06:30:05;11.70;;;5.03;;
52432;SDS011;38352;53.244;6.594;2024-03-17T06:32:32;10.50;;;5.03;;
52432;SDS011;38352;53.244;6.594;2024-03-17T06:34:58;11.48;;;4.97;;
52432;SDS011;38352;53.244;6.594;2024-03-17T06:37:25;13.32;;;5.40;;
52432;SDS011;38352;53.244;6.594;2024-03-17T06:39:51;10.52;;;5.25;;
52432;SDS011;38352;53.244;6.594;2024-03-17T06:42:17;12.75;;;5.63;;
52432;SDS011;38352;53.244;6.594;2024-03-17T06:44:43;11.00;;;5.53;;
52432;SDS011;38352;53.244;6.594;2024-03-17T06:47:09;12.48;;;5.35;;
52432;SDS011;38352;53.244;6.594;2024-03-17T06:49:35;12.43;;;4.68;;
52432;SDS011;38352;53.244;6.594;2024-03-17T06:52:01;16.65;;;5.15;;
52432;SDS011;38352;53.244;6.594;2024-03-17T06:54:27;9.88;;;5.32;;
52432;SDS011;38352;53.244;6.594;2024-03-17T06:56:53;12.45;;;5.80;;
52432;SDS011;38352;53.244;6.594;2024-03-17T06:59:19;14.30;;;5.00;;
52432;SDS011;38352;53.244;6.594;2024-03-17T07:01:49;11.80;;;4.88;;
52432;SDS011;38352;53.244;6.594;2024-03-17T07:04:15;10.18;;;5.13;;
52432;SDS011;38352;53.244;6.594;2024-03-17T07:06:46;10.45;;;5.18;;
52432;SDS011;38352;53.244;6.594;2024-03-17T07:09:12;10.75;;;4.70;;
52432;SDS011;38352;53.244;6.594;2024-03-17T07:11:38;14.07;;;4.85;;
52432;SDS011;38352;53.244;6.594;2024-03-17T07:14:04;14.90;;;4.93;;
52432;SDS011;38352;53.244;6.594;2024-03-17T07:16:30;13.10;;;4.63;;
52432;SDS011;38352;53.244;6.594;2024-03-17T07:18:57;11.23;;;4.85;;
52432;SDS011;38352;53.244;6.594;2024-03-17T07:21:24;11.45;;;4.18;;
52432;SDS011;38352;53.244;6.594;2024-03-17T07:23:50;10.73;;;4.63;;
52432;SDS011;38352;53.244;6.594;2024-03-17T07:26:16;13.15;;;4.47;;
52432;SDS011;38352;53.244;6.594;2024-03-17T07:28:42;10.32;;;4.00;;
52432;SDS011;38352;53.244;6.594;2024-03-17T07:31:09;12.38;;;4.68;;
52432;SDS011;38352;53.244;6.594;2024-03-17T07:33:36;10.05;;;4.00;;
52432;SDS011;38352;53.244;6.594;2024-03-17T07:36:02;11.18;;;3.88;;
52432;SDS011;38352;53.244;6.594;2024-03-17T07:38:30;12.25;;;4.22;;
52432;SDS011;38352;53.244;6.594;2024-03-17T07:41:03;9.35;;;3.78;;
52432;SDS011;38352;53.244;6.594;2024-03-17T07:43:37;11.77;;;3.90;;
52432;SDS011;38352;53.244;6.594;2024-03-17T07:46:04;14.13;;;4.28;;
52432;SDS011;38352;53.244;6.594;2024-03-17T07:48:30;13.23;;;3.50;;
52432;SDS011;38352;53.244;6.594;2024-03-17T07:51:00;10.25;;;3.80;;
52432;SDS011;38352;53.244;6.594;2024-03-17T07:53:29;9.52;;;3.30;;
52432;SDS011;38352;53.244;6.594;2024-03-17T07:55:58;9.25;;;3.47;;
52432;SDS011;38352;53.244;6.594;2024-03-17T07:58:25;11.73;;;3.88;;
52432;SDS011;38352;53.244;6.594;2024-03-17T08:00:51;10.82;;;4.07;;
52432;SDS011;38352;53.244;6.594;2024-03-17T08:03:18;15.07;;;3.92;;
52432;SDS011;38352;53.244;6.594;2024-03-17T08:05:50;8.27;;;3.40;;
52432;SDS011;38352;53.244;6.594;2024-03-17T08:08:17;14.57;;;3.92;;
52432;SDS011;38352;53.244;6.594;2024-03-17T08:10:43;14.38;;;3.80;;
52432;SDS011;38352;53.244;6.594;2024-03-17T08:13:10;10.60;;;3.58;;
52432;SDS011;38352;53.244;6.594;2024-03-17T08:15:36;10.85;;;3.42;;
52432;SDS011;38352;53.244;6.594;2024-03-17T08:18:02;8.25;;;3.50;;
52432;SDS011;38352;53.244;6.594;2024-03-17T08:20:35;9.57;;;2.95;;
52432;SDS011;38352;53.244;6.594;2024-03-17T08:23:01;10.73;;;3.00;;
52432;SDS011;38352;53.244;6.594;2024-03-17T08:25:27;9.15;;;3.17;;
52432;SDS011;38352;53.244;6.594;2024-03-17T08:27:53;7.65;;;2.53;;
52432;SDS011;38352;53.244;6.594;2024-03-17T08:30:19;9.40;;;3.15;;
52432;SDS011;38352;53.244;6.594;2024-03-17T08:32:46;10.98;;;2.50;;
52432;SDS011;38352;53.244;6.594;2024-03-17T08:35:12;8.20;;;2.85;;
52432;SDS011;38352;53.244;6.594;2024-03-17T08:37:38;9.15;;;2.97;;
52432;SDS011;38352;53.244;6.594;2024-03-17T08:40:04;6.40;;;2.83;;
52432;SDS011;38352;53.244;6.594;2024-03-17T08:42:33;9.02;;;2.85;;
52432;SDS011;38352;53.244;6.594;2024-03-17T08:44:59;11.43;;;2.75;;
52432;SDS011;38352;53.244;6.594;2024-03-17T08:47:25;9.48;;;2.63;;
52432;SDS011;38352;53.244;6.594;2024-03-17T08:49:51;12.27;;;3.13;;
52432;SDS011;38352;53.244;6.594;2024-03-17T08:52:17;6.80;;;2.90;;
52432;SDS011;38352;53.244;6.594;2024-03-17T08:54:47;12.45;;;3.00;;
52432;SDS011;38352;53.244;6.594;2024-03-17T08:57:13;9.32;;;2.72;;
52432;SDS011;38352;53.244;6.594;2024-03-17T08:59:39;10.18;;;2.80;;
52432;SDS011;38352;53.244;6.594;2024-03-17T09:02:05;12.30;;;3.45;;
52432;SDS011;38352;53.244;6.594;2024-03-17T09:04:37;9.05;;;2.95;;
52432;SDS011;38352;53.244;6.594;2024-03-17T09:07:03;8.52;;;2.70;;
52432;SDS011;38352;53.244;6.594;2024-03-17T09:09:29;7.85;;;2.88;;
52432;SDS011;38352;53.244;6.594;2024-03-17T09:11:55;7.70;;;2.90;;
52432;SDS011;38352;53.244;6.594;2024-03-17T09:14:22;8.07;;;2.97;;
52432;SDS011;38352;53.244;6.594;2024-03-17T09:16:48;8.55;;;2.90;;
52432;SDS011;38352;53.244;6.594;2024-03-17T09:19:14;10.32;;;3.00;;
52432;SDS011;38352;53.244;6.594;2024-03-17T09:21:40;12.70;;;4.18;;
52432;SDS011;38352;53.244;6.594;2024-03-17T09:24:07;10.63;;;4.40;;
52432;SDS011;38352;53.244;6.594;2024-03-17T09:26:33;7.45;;;3.20;;
52432;SDS011;38352;53.244;6.594;2024-03-17T09:29:00;5.75;;;3.25;;
52432;SDS011;38352;53.244;6.594;2024-03-17T09:31:26;11.63;;;3.38;;
52432;SDS011;38352;53.244;6.594;2024-03-17T09:33:52;10.63;;;3.78;;
52432;SDS011;38352;53.244;6.594;2024-03-17T09:36:18;8.52;;;3.75;;
52432;SDS011;38352;53.244;6.594;2024-03-17T09:38:45;10.20;;;3.63;;
52432;SDS011;38352;53.244;6.594;2024-03-17T09:41:30;8.73;;;4.15;;
52432;SDS011;38352;53.244;6.594;2024-03-17T09:43:56;11.57;;;4.05;;
52432;SDS011;38352;53.244;6.594;2024-03-17T09:46:23;10.07;;;4.47;;
52432;SDS011;38352;53.244;6.594;2024-03-17T09:48:51;13.98;;;4.93;;
52432;SDS011;38352;53.244;6.594;2024-03-17T09:53:46;13.35;;;4.50;;
52432;SDS011;38352;53.244;6.594;2024-03-17T09:56:13;11.07;;;4.65;;
52432;SDS011;38352;53.244;6.594;2024-03-17T09:58:41;12.88;;;5.00;;
52432;SDS011;38352;53.244;6.594;2024-03-17T10:01:07;12.32;;;5.40;;
52432;SDS011;38352;53.244;6.594;2024-03-17T10:03:40;11.63;;;5.20;;
52432;SDS011;38352;53.244;6.594;2024-03-17T10:08:39;14.20;;;4.90;;
52432;SDS011;38352;53.244;6.594;2024-03-17T10:11:05;11.10;;;4.78;;
52432;SDS011;38352;53.244;6.594;2024-03-17T10:13:32;13.70;;;5.15;;
52432;SDS011;38352;53.244;6.594;2024-03-17T10:15:58;12.60;;;5.25;;
52432;SDS011;38352;53.244;6.594;2024-03-17T10:18:24;10.07;;;4.95;;
52432;SDS011;38352;53.244;6.594;2024-03-17T10:20:50;13.88;;;5.50;;
52432;SDS011;38352;53.244;6.594;2024-03-17T10:23:21;17.23;;;5.47;;
52432;SDS011;38352;53.244;6.594;2024-03-17T10:25:47;13.70;;;6.13;;
52432;SDS011;38352;53.244;6.594;2024-03-17T10:28:13;16.58;;;5.80;;
52432;SDS011;38352;53.244;6.594;2024-03-17T10:30:40;12.90;;;5.78;;
52432;SDS011;38352;53.244;6.594;2024-03-17T10:33:19;14.32;;;6.18;;
52432;SDS011;38352;53.244;6.594;2024-03-17T10:35:47;14.15;;;5.93;;
52432;SDS011;38352;53.244;6.594;2024-03-17T10:38:14;12.50;;;6.53;;
52432;SDS011;38352;53.244;6.594;2024-03-17T10:40:41;13.63;;;5.72;;
52432;SDS011;38352;53.244;6.594;2024-03-17T10:43:07;11.85;;;6.20;;
52432;SDS011;38352;53.244;6.594;2024-03-17T10:45:33;13.15;;;6.50;;
52432;SDS011;38352;53.244;6.594;2024-03-17T10:48:07;15.53;;;6.77;;
52432;SDS011;38352;53.244;6.594;2024-03-17T10:50:35;12.30;;;6.50;;
52432;SDS011;38352;53.244;6.594;2024-03-17T10:53:03;12.65;;;5.75;;
52432;SDS011;38352;53.244;6.594;2024-03-17T10:55:32;16.20;;;6.15;;
52432;SDS011;38352;53.244;6.594;2024-03-17T10:58:02;10.13;;;5.78;;
52432;SDS011;38352;53.244;6.594;2024-03-17T11:00:29;12.70;;;6.00;;
52432;SDS011;38352;53.244;6.594;2024-03-17T11:02:56;11.45;;;5.95;;
52432;SDS011;38352;53.244;6.594;2024-03-17T11:07:52;10.45;;;5.80;;
52432;SDS011;38352;53.244;6.594;2024-03-17T11:10:29;11.73;;;6.25;;
52432;SDS011;38352;53.244;6.594;2024-03-17T11:13:00;11.63;;;6.15;;
52432;SDS011;38352;53.244;6.594;2024-03-17T11:23:03;12.75;;;6.13;;
52432;SDS011;38352;53.244;6.594;2024-03-17T11:38:53;17.30;;;7.22;;
52432;SDS011;38352;53.244;6.594;2024-03-17T11:46:59;15.23;;;7.63;;
52432;SDS011;38352;53.244;6.594;2024-03-17T11:49:27;13.25;;;7.40;;
52432;SDS011;38352;53.244;6.594;2024-03-17T11:51:54;14.82;;;7.55;;
52432;SDS011;38352;53.244;6.594;2024-03-17T11:54:25;11.40;;;7.30;;
52432;SDS011;38352;53.244;6.594;2024-03-17T11:56:55;15.05;;;7.95;;
52432;SDS011;38352;53.244;6.594;2024-03-17T11:59:22;13.45;;;7.75;;
52432;SDS011;38352;53.244;6.594;2024-03-17T12:01:48;15.57;;;7.95;;
52432;SDS011;38352;53.244;6.594;2024-03-17T12:04:15;13.57;;;7.95;;
52432;SDS011;38352;53.244;6.594;2024-03-17T12:09:18;15.38;;;8.00;;
52432;SDS011;38352;53.244;6.594;2024-03-17T12:12:09;14.02;;;7.68;;
52432;SDS011;38352;53.244;6.594;2024-03-17T12:14:34;13.35;;;8.18;;
52432;SDS011;38352;53.244;6.594;2024-03-17T12:17:01;13.52;;;7.75;;
52432;SDS011;38352;53.244;6.594;2024-03-17T12:19:28;12.45;;;8.10;;
52432;SDS011;38352;53.244;6.594;2024-03-17T12:21:55;14.95;;;8.60;;
52432;SDS011;38352;53.244;6.594;2024-03-17T12:24:22;14.07;;;8.00;;
52432;SDS011;38352;53.244;6.594;2024-03-17T12:26:49;14.18;;;8.10;;
52432;SDS011;38352;53.244;6.594;2024-03-17T12:29:21;15.52;;;8.70;;
52432;SDS011;38352;53.244;6.594;2024-03-17T12:31:48;13.90;;;7.97;;
52432;SDS011;38352;53.244;6.594;2024-03-17T12:34:14;14.23;;;8.05;;
52432;SDS011;38352;53.244;6.594;2024-03-17T12:36:40;15.45;;;8.20;;
52432;SDS011;38352;53.244;6.594;2024-03-17T12:39:10;15.18;;;8.10;;
52432;SDS011;38352;53.244;6.594;2024-03-17T12:41:36;14.55;;;7.78;;
52432;SDS011;38352;53.244;6.594;2024-03-17T12:44:03;13.13;;;8.30;;
52432;SDS011;38352;53.244;6.594;2024-03-17T12:46:30;16.80;;;9.43;;
52432;SDS011;38352;53.244;6.594;2024-03-17T12:48:58;16.73;;;9.07;;
52432;SDS011;38352;53.244;6.594;2024-03-17T12:51:24;14.57;;;8.38;;
52432;SDS011;38352;53.244;6.594;2024-03-17T12:54:11;15.35;;;8.50;;
52432;SDS011;38352;53.244;6.594;2024-03-17T12:56:37;13.82;;;9.13;;
52432;SDS011;38352;53.244;6.594;2024-03-17T12:59:22;17.38;;;9.77;;
52432;SDS011;38352;53.244;6.594;2024-03-17T13:02:10;16.52;;;8.77;;
52432;SDS011;38352;53.244;6.594;2024-03-17T13:04:37;16.05;;;10.07;;
52432;SDS011;38352;53.244;6.594;2024-03-17T13:07:12;16.23;;;10.45;;
52432;SDS011;38352;53.244;6.594;2024-03-17T13:09:39;21.48;;;10.65;;
52432;SDS011;38352;53.244;6.594;2024-03-17T13:12:13;14.70;;;9.10;;
52432;SDS011;38352;53.244;6.594;2024-03-17T13:14:40;13.90;;;9.20;;
52432;SDS011;38352;53.244;6.594;2024-03-17T13:17:06;15.25;;;8.60;;
52432;SDS011;38352;53.244;6.594;2024-03-17T13:19:33;15.98;;;9.25;;
52432;SDS011;38352;53.244;6.594;2024-03-17T13:22:01;15.05;;;8.38;;
52432;SDS011;38352;53.244;6.594;2024-03-17T13:24:27;15.60;;;9.07;;
52432;SDS011;38352;53.244;6.594;2024-03-17T13:26:53;17.60;;;10.10;;
52432;SDS011;38352;53.244;6.594;2024-03-17T13:29:23;16.65;;;9.30;;
52432;SDS011;38352;53.244;6.594;2024-03-17T13:31:49;14.40;;;9.15;;
52432;SDS011;38352;53.244;6.594;2024-03-17T13:34:16;14.18;;;9.40;;
52432;SDS011;38352;53.244;6.594;2024-03-17T13:36:42;15.98;;;9.65;;
52432;SDS011;38352;53.244;6.594;2024-03-17T13:39:08;14.02;;;9.48;;
52432;SDS011;38352;53.244;6.594;2024-03-17T13:41:35;16.17;;;9.82;;
52432;SDS011;38352;53.244;6.594;2024-03-17T13:44:01;18.38;;;9.55;;
52432;SDS011;38352;53.244;6.594;2024-03-17T13:46:27;14.82;;;9.07;;
52432;SDS011;38352;53.244;6.594;2024-03-17T13:48:54;16.50;;;9.27;;
52432;SDS011;38352;53.244;6.594;2024-03-17T13:51:25;20.77;;;10.45;;
52432;SDS011;38352;53.244;6.594;2024-03-17T13:53:51;19.48;;;9.52;;
52432;SDS011;38352;53.244;6.594;2024-03-17T13:56:17;16.83;;;10.02;;
52432;SDS011;38352;53.244;6.594;2024-03-17T13:58:43;14.32;;;9.32;;
52432;SDS011;38352;53.244;6.594;2024-03-17T14:01:09;16.35;;;9.45;;
52432;SDS011;38352;53.244;6.594;2024-03-17T14:03:35;16.63;;;9.98;;
52432;SDS011;38352;53.244;6.594;2024-03-17T14:06:04;16.10;;;9.32;;
52432;SDS011;38352;53.244;6.594;2024-03-17T14:08:31;14.80;;;8.77;;
52432;SDS011;38352;53.244;6.594;2024-03-17T14:10:57;14.48;;;9.40;;
52432;SDS011;38352;53.244;6.594;2024-03-17T14:13:23;17.33;;;9.98;;
52432;SDS011;38352;53.244;6.594;2024-03-17T14:15:49;14.25;;;9.30;;
52432;SDS011;38352;53.244;6.594;2024-03-17T14:18:15;15.85;;;8.73;;
52432;SDS011;38352;53.244;6.594;2024-03-17T14:20:41;17.20;;;9.57;;
52432;SDS011;38352;53.244;6.594;2024-03-17T14:23:07;13.60;;;8.55;;
52432;SDS011;38352;53.244;6.594;2024-03-17T14:25:33;14.32;;;8.70;;
52432;SDS011;38352;53.244;6.594;2024-03-17T14:27:59;15.07;;;8.98;;
52432;SDS011;38352;53.244;6.594;2024-03-17T14:30:26;14.82;;;9.23;;
52432;SDS011;38352;53.244;6.594;2024-03-17T14:32:52;14.45;;;8.15;;
52432;SDS011;38352;53.244;6.594;2024-03-17T14:35:18;17.58;;;8.80;;
52432;SDS011;38352;53.244;6.594;2024-03-17T14:37:47;14.00;;;8.55;;
52432;SDS011;38352;53.244;6.594;2024-03-17T14:40:14;14.85;;;8.45;;
52432;SDS011;38352;53.244;6.594;2024-03-17T14:42:51;15.82;;;9.02;;
52432;SDS011;38352;53.244;6.594;2024-03-17T14:45:17;16.27;;;8.32;;
52432;SDS011;38352;53.244;6.594;2024-03-17T14:47:44;12.40;;;7.90;;
52432;SDS011;38352;53.244;6.594;2024-03-17T14:50:10;14.10;;;8.57;;
52432;SDS011;38352;53.244;6.594;2024-03-17T14:52:41;14.27;;;8.57;;
52432;SDS011;38352;53.244;6.594;2024-03-17T14:55:10;13.73;;;8.45;;
52432;SDS011;38352;53.244;6.594;2024-03-17T14:57:37;13.23;;;8.48;;
52432;SDS011;38352;53.244;6.594;2024-03-17T15:00:07;16.23;;;8.13;;
52432;SDS011;38352;53.244;6.594;2024-03-17T15:02:45;16.88;;;8.55;;
52432;SDS011;38352;53.244;6.594;2024-03-17T15:05:15;13.82;;;8.30;;
52432;SDS011;38352;53.244;6.594;2024-03-17T15:07:42;12.40;;;8.45;;
52432;SDS011;38352;53.244;6.594;2024-03-17T15:10:09;16.60;;;9.20;;
52432;SDS011;38352;53.244;6.594;2024-03-17T15:12:35;14.77;;;8.80;;
52432;SDS011;38352;53.244;6.594;2024-03-17T15:15:01;15.25;;;8.85;;